createdAt,value
2023-03-23T15:58:45.245Z,56.17
2023-03-23T16:03:51.678Z,57.77
2023-03-23T16:08:57.273Z,58.07
2023-03-23T16:14:01.781Z,58.98
2023-03-23T16:19:07.387Z,59.68
2023-03-23T16:24:11.876Z,60.58
2023-03-23T16:29:29.058Z,61.06
2023-03-23T16:34:42.053Z,61.30
2023-03-23T16:39:46.004Z,61.88
2023-03-23T16:44:51.582Z,62.28
2023-03-23T16:49:55.571Z,62.73
2023-03-23T16:54:59.805Z,63.13
2023-03-23T17:00:11.755Z,63.64
2023-03-23T17:05:16.597Z,63.92
2023-03-23T17:10:20.471Z,64.75
2023-03-23T17:15:26.318Z,64.74
2023-03-23T17:20:31.012Z,65.22
2023-03-23T17:25:35.081Z,65.77
2023-03-23T17:30:42.506Z,65.90
2023-03-23T17:35:48.082Z,66.45
2023-03-23T17:41:04.968Z,67.04
2023-03-23T17:46:09.972Z,67.04
2023-03-23T17:51:14.115Z,67.94
2023-03-23T17:56:18.585Z,67.73
2023-03-23T18:01:22.498Z,67.62
2023-03-23T18:06:26.690Z,67.88
2023-03-23T18:11:31.044Z,68.43
2023-03-23T18:16:35.155Z,68.24
2023-03-23T18:21:40.023Z,68.22
2023-03-23T18:26:43.976Z,68.51
2023-03-23T18:31:48.112Z,68.71
2023-03-23T18:36:52.543Z,68.76
2023-03-23T18:41:56.543Z,68.54
2023-03-23T18:47:00.464Z,68.31
2023-03-23T18:52:05.041Z,68.80
2023-03-23T18:57:09.134Z,68.82
2023-03-23T19:02:14.579Z,68.79
2023-03-23T19:07:19.121Z,69.21
2023-03-23T19:12:24.099Z,69.24
2023-03-23T19:17:28.201Z,68.86
2023-03-23T19:22:32.417Z,69.20
2023-03-23T19:27:53.330Z,68.98
2023-03-23T19:33:01.823Z,69.14
2023-03-23T19:38:05.771Z,69.09
2023-03-23T19:43:10.194Z,69.00
2023-03-23T19:48:14.149Z,69.03
2023-03-23T19:53:19.373Z,68.79
2023-03-23T19:58:23.579Z,68.87
2023-03-23T20:03:27.800Z,68.71
2023-03-23T20:08:32.298Z,68.53
2023-03-23T20:13:36.979Z,69.16
2023-03-23T20:18:41.179Z,69.38
2023-03-23T20:23:46.054Z,69.31
2023-03-23T20:28:50.021Z,68.89
2023-03-23T20:34:03.737Z,69.38
2023-03-23T20:39:12.837Z,69.39
2023-03-23T20:44:16.752Z,69.39
2023-03-23T20:49:21.543Z,69.59
2023-03-23T20:54:25.567Z,69.14
2023-03-23T20:59:29.752Z,69.76
2023-03-23T21:04:33.607Z,69.73
2023-03-23T21:09:38.272Z,70.04
2023-03-23T21:14:42.217Z,70.38
2023-03-23T21:19:46.363Z,70.64
2023-03-23T21:24:53.851Z,70.50
2023-03-23T21:30:00.830Z,70.60
2023-03-23T21:35:05.555Z,70.92
2023-03-23T21:40:15.049Z,70.92
2023-03-23T21:45:21.817Z,71.09
2023-03-23T21:50:25.819Z,71.19
2023-03-23T21:55:30.470Z,71.07
2023-03-23T22:00:34.571Z,71.61
2023-03-23T22:05:41.373Z,71.85
2023-03-23T22:11:00.972Z,71.46
2023-03-23T22:16:08.863Z,72.13
2023-03-23T22:21:14.637Z,71.84
2023-03-23T22:26:19.328Z,72.07
2023-03-23T22:31:27.409Z,72.38
2023-03-23T22:36:33.811Z,72.24
2023-03-23T22:41:41.702Z,72.40
2023-03-23T22:46:46.784Z,72.58
2023-03-23T22:51:51.100Z,72.32
2023-03-23T22:56:55.219Z,72.65
2023-03-23T23:01:59.242Z,73.25
2023-03-23T23:07:12.566Z,73.26
2023-03-23T23:12:19.064Z,73.16
2023-03-23T23:17:22.930Z,73.27
2023-03-23T23:22:27.202Z,73.13
2023-03-23T23:27:32.235Z,73.13
2023-03-23T23:32:37.048Z,73.35
2023-03-23T23:37:41.181Z,73.10
2023-03-23T23:42:50.157Z,72.98
2023-03-23T23:47:54.278Z,73.22
2023-03-23T23:52:59.708Z,73.69
2023-03-23T23:58:03.571Z,73.69
